Ebroborg — PCGH — position and weather

sailwx.info

Track history (hours):
 
Tides and Currents Weather Stations Pressure Air Temp Water Temp Dewpoint Dewpoint Depression Visibility Wind Speed Wind Dir Waves Ship Positions

Ebroborg

Last reported at 2018-Jun-23 22:13 UTC. Time now 2018-Jun-25 15:54 UTC.
Position N 25°40' W 079°34'.

Length 138 m; draft 7.7 m.

Type: Cargo ship. MMSI: 245952000.

Date/timePositionNaut miles runAvg speedWind from/ knotsBaromVisibWave heightAir tempDewpointWater temp
2018-Jun-23 22:13N 25°40' W 079°34'2 9.5
2018-Jun-23 22:00N 25°42' W 079°34'5 9.4
2018-Jun-23 21:30N 25°47' W 079°33'5 9.3
2018-Jun-23 21:00N 25°52' W 079°33'5 9.4
2018-Jun-23 20:30N 25°56' W 079°32'8 9.4
2018-Jun-23 19:39N 26°04' W 079°31'1 8.1
2018-Jun-23 19:29N 26°06' W 079°31'5 9.7
2018-Jun-23 19:00N 26°10' W 079°30'5 9.2
2018-Jun-23 18:28N 26°15' W 079°30'  
Track history (hours):
 
Tides and Currents Weather Stations Pressure Air Temp Water Temp Dewpoint Dewpoint Depression Visibility Wind Speed Wind Dir Waves Ship Positions

Ebroborg

Last reported at 2018-Jun-23 22:13 UTC. Time now 2018-Jun-25 15:54 UTC.
Position N 25°40' W 079°34'.

Length 138 m; draft 7.7 m.

Type: Cargo ship. MMSI: 245952000.

Date/timePositionNaut miles runAvg speedWind from/ knotsBaromVisibWave heightAir tempDewpointWater temp
2018-Jun-23 22:13N 25°40' W 079°34'2 9.5
2018-Jun-23 22:00N 25°42' W 079°34'5 9.4
2018-Jun-23 21:30N 25°47' W 079°33'5 9.3
2018-Jun-23 21:00N 25°52' W 079°33'5 9.4
2018-Jun-23 20:30N 25°56' W 079°32'8 9.4
2018-Jun-23 19:39N 26°04' W 079°31'1 8.1
2018-Jun-23 19:29N 26°06' W 079°31'5 9.7
2018-Jun-23 19:00N 26°10' W 079°30'5 9.2
2018-Jun-23 18:28N 26°15' W 079°30'  

Dump ship's entire track history